• Join FlightAware (Why Join?)
  • Login
  • US Flag 
05:22AM EDT


 

Airport Tracker/Info


-or-


 

Live Flight TrackerFlight Track Log ✈ EJA658 ✈ 21-Jun-2013 ✈ KHYA - KMQJ

Flight Track Log - Related Links

Times and Time Zones

All times are in EDT time to prevent confusion due to time zone crossing. See the EJA658 flight status page for this flight to view local times or setup timezone preferences in your user account.

Time Position Orientation Groundspeed Altitude Reporting Facility
EDT Latitude Longitude Course Direction KTS MPH feet Rate Location/Type
12:54PM 41.7281 -70.3094 287° West 249 287 6,500  Level Boston Center
12:55PM 41.7853 -70.2544 36° Northeast 249 287 9,900 3,060 Climbing Boston Center
12:56PM 41.8508 -70.1936 35° Northeast 262 302 12,700 2,760 Climbing Boston Center
12:57PM 41.9183 -70.1300 35° Northeast 280 322 15,400 2,520 Climbing Boston Center
12:58PM 42.0943 -70.3634 291° West  Level FlightAware Approximate
12:58PM 41.9928 -70.1047 14° North 285 328 17,900  Level Boston Center
12:59PM 42.1266 -70.5030 287° West  Level FlightAware Approximate
12:59PM 42.0547 -70.1808 318° Northwest 232 267 20,300  Level Boston Center
01:00PM 42.0778 -70.2864 286° West 237 273 22,400 1,980 Climbing Boston Center
01:01PM 42.1089 -70.3972 291° West 273 314 24,400 1,800 Climbing Boston Center
01:02PM 42.1378 -70.5025 290° West 299 344 26,000 780 Climbing Boston Center
01:03PM 42.1750 -70.5939 299° West 320 368 26,000  Level Boston Center
01:04PM 42.2356 -70.7353 300° West 349 402 26,000 420 Level Boston Center
01:05PM 42.2767 -70.8547 295° West 364 419 26,900 1,260 Climbing Boston Center
01:06PM 42.2992 -70.9806 284° West 364 419 28,600 1,680 Climbing Boston Center
01:07PM 42.3217 -71.1006 284° West 350 403 30,300 1,680 Climbing Boston Center
01:08PM 42.3458 -71.2208 285° West 339 390 32,000 1,620 Climbing Boston Center
01:09PM 42.3681 -71.3358 285° West 334 384 33,600 1,620 Climbing Boston Center
01:10PM 42.3897 -71.4533 284° West 329 379 35,300 1,500 Climbing Boston Center
01:11PM 42.4117 -71.5797 283° West 323 372 36,600 1,620 Climbing Boston Center
01:12PM 42.4292 -71.6864 283° West 315 362 38,600 1,440 Climbing Boston Center
01:13PM 42.4506 -71.7986 285° West 310 357 39,600 660 Climbing Boston Center
01:14PM 42.4681 -71.9194 281° West 317 365 40,000 180 Climbing Boston Center
01:15PM 42.4831 -72.0517 279° West 343 395 40,000  Level Boston Center
01:16PM 42.4981 -72.1894 278° West 361 415 40,000  Level Boston Center
01:17PM 42.5108 -72.3106 278° West 367 422 40,000  Level Boston Center
01:18PM 42.5256 -72.4428 279° West 362 417 40,000  Level Boston Center
01:19PM 42.5358 -72.5725 276° West 362 417 40,000  Level Boston Center
01:20PM 42.5522 -72.7050 280° West 362 417 40,000  Level Boston Center
01:21PM 42.5644 -72.8433 277° West 369 425 40,000  Level Boston Center
01:22PM 42.5764 -72.9814 277° West 369 425 40,000  Level Boston Center
01:23PM 42.5922 -73.1169 279° West 369 425 40,000  Level Boston Center
01:24PM 42.6058 -73.2667 277° West 380 437 40,000  Level Boston Center
01:25PM 42.6172 -73.4050 276° West 391 450 40,000  Level Boston Center
01:26PM 42.6283 -73.5433 276° West 385 443 40,000  Level Boston Center
01:27PM 42.6417 -73.6819 277° West 380 437 40,000  Level Boston Center
01:28PM 42.6525 -73.8150 276° West 369 425 40,000  Level Boston Center
01:29PM 42.6633 -73.9533 276° West 369 425 40,000  Level Boston Center
01:30PM 42.6761 -74.0922 277° West 369 425 40,000  Level Boston Center
01:31PM 42.6864 -74.2336 276° West 369 425 40,000  Level Boston Center
01:32PM 42.7008 -74.3725 278° West 369 425 40,000  Level Boston Center
01:33PM 42.7144 -74.5397 276° West 369 425 40,000  Level Boston Center
01:34PM 42.7242 -74.6814 275° West 369 425 40,000  Level Boston Center
01:35PM 42.7339 -74.8258 275° West 374 430 40,000  Level Boston Center
01:36PM 42.7472 -74.9764 277° West 374 430 40,000  Level Boston Center
01:37PM 42.7586 -75.1181 276° West 374 430 40,000  Level Boston Center
01:38PM 42.7697 -75.2628 276° West 384 442 40,000  Level Boston Center
01:39PM 42.7806 -75.4078 276° West 389 448 40,000  Level Boston Center
01:40PM 42.7914 -75.5525 276° West 389 448 40,000  Level Boston Center
01:41PM 42.8017 -75.7003 275° West 389 448 40,000 -60 Level Boston Center
01:42PM 42.8122 -75.8425 276° West 389 448 39,900  Descending Boston Center
01:43PM 42.8222 -75.9903 275° West 389 448 40,000  Climbing Boston Center
01:45PM 42.8439 -76.3069 275° West 384 442 40,000  Level Cleveland Center
01:46PM 42.8533 -76.4564 275° West 389 448 40,000  Level Cleveland Center
01:47PM 42.8628 -76.6031 275° West 395 455 40,000  Level Cleveland Center
01:48PM 42.8739 -76.7497 276° West 395 455 40,000  Level Cleveland Center
01:49PM 42.8828 -76.8967 275° West 395 455 40,000  Level Cleveland Center
01:50PM 42.8875 -77.0467 273° West 400 460 40,000  Level Cleveland Center
01:51PM 42.8439 -77.1906 248° West 400 460 40,000  Level Cleveland Center
01:52PM 42.8000 -77.3289 247° West 400 460 40,000  Level Cleveland Center
01:53PM 42.7539 -77.4669 246° West 400 460 40,000  Level Cleveland Center
01:54PM 42.7033 -77.6136 245° Southwest 405 466 40,000  Level Cleveland Center
01:55PM 42.6592 -77.7569 247° West 411 473 40,000  Level Cleveland Center
01:56PM 42.6067 -77.9144 246° West 411 473 40,000  Level Cleveland Center
01:57PM 42.5575 -78.0519 244° Southwest 411 473 40,000 540 Level Cleveland Center
01:58PM 42.5106 -78.1947 246° West 411 473 41,100 1,200 Climbing Cleveland Center
01:59PM 42.4633 -78.3286 244° Southwest 405 466 42,400 900 Climbing Cleveland Center
02:00PM 42.4178 -78.4681 246° West 405 466 43,000 300 Climbing Cleveland Center
02:01PM 42.3683 -78.6103 245° Southwest 405 466 43,000  Level Cleveland Center
02:02PM 42.3206 -78.7494 245° Southwest 405 466 43,000  Level Cleveland Center
02:03PM 42.2706 -78.8911 245° Southwest 405 466 43,000  Level Cleveland Center
02:04PM 42.2244 -79.0214 244° Southwest 405 466 43,000  Level Cleveland Center
02:05PM 42.1783 -79.1625 246° West 410 472 43,000  Level Cleveland Center
02:06PM 42.1406 -79.3092 251° West 415 478 43,000  Level Cleveland Center
02:07PM 42.1044 -79.4525 251° West 420 483 43,000  Level Cleveland Center
02:08PM 42.0642 -79.6014 250° West 414 476 43,000  Level Cleveland Center
02:09PM 42.0300 -79.7444 252° West 414 476 43,000  Level Cleveland Center
02:10PM 41.9892 -79.8903 249° West 414 476 43,000  Level Cleveland Center
02:11PM 41.9442 -80.0556 250° West 421 484 43,000  Level Cleveland Center
02:12PM 41.9053 -80.2008 250° West 421 484 43,000  Level Cleveland Center
02:13PM 41.8658 -80.3461 250° West 421 484 43,000  Level Cleveland Center
02:14PM 41.8244 -80.4939 249° West 421 484 43,000  Level Cleveland Center
02:15PM 41.7850 -80.6417 250° West 427 491 43,000  Level Cleveland Center
02:16PM 41.7431 -80.7947 250° West 427 491 43,000  Level Cleveland Center
02:17PM 41.7072 -80.9253 250° West 427 491 43,000  Level Cleveland Center
02:18PM 41.6672 -81.0750 250° West 427 491 43,000  Level Cleveland Center
02:19PM 41.6247 -81.2219 249° West 427 491 43,000  Level Cleveland Center
02:20PM 41.5842 -81.3689 250° West 427 491 43,000  Level Cleveland Center
02:21PM 41.5414 -81.5208 249° West 427 491 43,000  Level Cleveland Center
02:22PM 41.4983 -81.6700 249° West 427 491 43,000  Level Cleveland Center
02:23PM 41.4486 -81.8269 247° West 440 506 43,000  Level Cleveland Center
02:24PM 41.3992 -81.9756 246° West 445 512 43,000  Level Cleveland Center
02:25PM 41.3492 -82.1239 246° West 437 503 43,000  Level Cleveland Center
02:26PM 41.3033 -82.2692 247° West 446 513 43,000  Level Cleveland Center
02:27PM 41.2531 -82.4197 246° West 446 513 43,000  Level Cleveland Center
02:28PM 41.2047 -82.5675 247° West 440 506 43,000  Level Cleveland Center
02:29PM 41.1561 -82.7150 246° West 440 506 43,000  Level Cleveland Center
02:30PM 41.1031 -82.8786 247° West 440 506 43,000  Level Cleveland Center
02:31PM 41.0542 -83.0200 245° Southwest 435 501 43,000 -660 Level Cleveland Center
02:32PM 41.0050 -83.1722 247° West 435 501 41,700 -1,980 Descending Cleveland Center
02:33PM 40.9600 -83.3164 248° West 435 501 39,100 -2,280 Descending Cleveland Center
02:34PM 40.9172 -83.4464 247° West 429 494 37,200 -2,100 Descending Cleveland Center
02:35PM 40.8675 -83.5925 246° West 434 499 34,900 -2,280 Descending Cleveland Center
02:36PM 40.8161 -83.7372 245° Southwest 442 509 32,600 -1,440 Descending Indianapolis Center
02:37PM 40.7586 -83.9058 246° West 431 496 32,000 -360 Descending Indianapolis Center
02:38PM 40.7081 -84.0531 252° West 436 502 31,900 -540 Descending Indianapolis Center
02:39PM 40.6976 -84.0428 252° West  Level FlightAware Approximate
02:39PM 40.6589 -84.1986 246° West 430 495 31,000  Level Indianapolis Center
02:40PM 40.6086 -84.3436 245° Southwest 433 498 31,000 -300 Level Indianapolis Center
02:41PM 40.5581 -84.4883 245° Southwest 430 495 30,500 -1,380 Descending Indianapolis Center
02:43PM 40.5081 -84.6325 246° West 430 495 28,200 -2,340 Descending Indianapolis Center
02:44PM 40.4558 -84.7492 246° West  Level FlightAware Approximate
02:46PM 40.3525 -85.0706 242° Southwest 410 472 20,800  Level Indianapolis Center
02:47PM 40.3058 -85.2008 245° Southwest 399 459 18,600 -2,100 Descending Indianapolis Center
02:48PM 40.2608 -85.3272 245° Southwest 385 443 16,500 -2,100 Descending Indianapolis Center
02:49PM 40.2156 -85.4467 244° Southwest 370 426 14,300 -2,160 Descending Indianapolis Center
02:50PM 40.1556 -85.5847 240° Southwest 366 421 12,100 -1,680 Descending Indianapolis Center
02:51PM 40.1461 -85.5932 242° Southwest  Level FlightAware Approximate
02:51PM 40.1072 -85.6961 240° Southwest 357 411 10,900  Level Indianapolis Center
02:52PM 40.0372 -85.7625 216° Southwest 322 371 9,700 -1,800 Descending Indianapolis Center
02:53PM 39.9575 -85.7619 180° South 292 336 7,200 -2,400 Descending Indianapolis Center
02:54PM 39.8828 -85.7525 174° South 282 325 4,800 -2,220 Descending Indianapolis Center
02:55PM 39.8511 -85.8047 232° Southwest 257 296 2,700 -1,740 Descending Indianapolis Center
02:56PM 39.8500 -85.8636 269° West 201 231 1,300 -1,380 Descending Indianapolis Center